createdAt,value
2015-11-26T00:00:30.500Z,4.2
2015-11-26T00:01:30.450Z,4.2
2015-11-26T00:02:30.416Z,4.3
2015-11-26T00:03:30.326Z,4.3
2015-11-26T00:04:30.285Z,4.3
2015-11-26T00:05:30.210Z,4.3
2015-11-26T00:06:30.150Z,4.3
2015-11-26T00:07:30.087Z,4.4
2015-11-26T00:08:30.043Z,4.4
2015-11-26T00:09:29.984Z,4.4
2015-11-26T00:10:29.924Z,4.4
2015-11-26T00:11:29.864Z,4.4
2015-11-26T00:12:29.820Z,4.4
2015-11-26T00:13:29.759Z,4.4
2015-11-26T00:14:29.701Z,4.4
2015-11-26T00:15:29.641Z,4.4
2015-11-26T00:16:29.581Z,4.4
2015-11-26T00:17:29.537Z,4.4
2015-11-26T00:18:29.476Z,4.5
2015-11-26T00:19:29.417Z,4.5
2015-11-26T00:20:29.356Z,4.4
2015-11-26T00:21:29.298Z,4.5
2015-11-26T00:22:29.254Z,4.4
2015-11-26T00:23:29.194Z,4.5
2015-11-26T00:24:29.149Z,4.5
2015-11-26T00:25:29.075Z,4.5
2015-11-26T00:26:29.015Z,4.5
2015-11-26T00:27:28.955Z,4.5
2015-11-26T00:28:28.911Z,4.5
2015-11-26T00:29:28.851Z,4.5
2015-11-26T00:30:28.806Z,4.5
2015-11-26T00:31:28.731Z,4.5
2015-11-26T00:32:28.687Z,4.5
2015-11-26T00:33:28.659Z,4.5
2015-11-26T00:34:28.567Z,4.4
2015-11-26T00:35:28.508Z,4.4
2015-11-26T00:36:28.448Z,4.5
2015-11-26T00:37:28.388Z,4.5
2015-11-26T00:38:28.344Z,4.5
2015-11-26T00:39:28.284Z,4.5
2015-11-26T00:40:28.224Z,4.4
2015-11-26T00:41:28.164Z,4.4
2015-11-26T00:42:28.105Z,4.4
2015-11-26T00:43:28.060Z,4.4
2015-11-26T00:44:28.002Z,4.4
2015-11-26T00:45:27.941Z,4.4
2015-11-26T00:46:27.882Z,4.5
2015-11-26T00:47:27.838Z,4.4
2015-11-26T00:48:27.777Z,4.4
2015-11-26T00:49:27.718Z,4.4
2015-11-26T00:50:27.657Z,4.4
2015-11-26T00:51:27.613Z,4.4
2015-11-26T00:52:27.554Z,4.4
2015-11-26T00:53:27.493Z,4.4
2015-11-26T00:54:27.435Z,4.4
2015-11-26T00:55:27.374Z,4.5
2015-11-26T00:56:27.315Z,4.5
2015-11-26T00:57:27.271Z,4.5
2015-11-26T00:58:27.210Z,4.5
2015-11-26T00:59:27.157Z,4.5
2015-11-26T01:00:27.097Z,4.5
2015-11-26T01:01:27.037Z,4.5
2015-11-26T01:02:26.977Z,4.5
2015-11-26T01:03:26.918Z,4.5
2015-11-26T01:04:26.874Z,4.5
2015-11-26T01:05:26.813Z,4.5
2015-11-26T01:06:26.754Z,4.4
2015-11-26T01:07:26.694Z,4.4
2015-11-26T01:08:26.635Z,4.4
2015-11-26T01:09:26.591Z,4.4
2015-11-26T01:10:26.531Z,4.4
2015-11-26T01:11:26.471Z,4.4
2015-11-26T01:12:26.411Z,4.3
2015-11-26T01:13:26.368Z,4.3
2015-11-26T01:14:26.307Z,4.3
2015-11-26T01:15:26.247Z,4.3
2015-11-26T01:16:26.184Z,4.4
2015-11-26T01:17:26.125Z,4.3
2015-11-26T01:18:26.065Z,4.4
2015-11-26T01:19:26.036Z,4.4
2015-11-26T01:20:25.962Z,4.3
2015-11-26T01:21:25.902Z,4.3
2015-11-26T01:22:25.842Z,4.4
2015-11-26T01:23:25.783Z,4.4
2015-11-26T01:24:25.723Z,4.3
2015-11-26T01:25:25.679Z,4.4
2015-11-26T01:26:25.619Z,4.4
2015-11-26T01:27:25.559Z,4.4
2015-11-26T01:28:25.499Z,4.4
2015-11-26T01:29:25.440Z,4.4
2015-11-26T01:30:25.396Z,4.4
2015-11-26T01:31:25.351Z,4.4
2015-11-26T01:32:25.277Z,4.4
2015-11-26T01:33:25.217Z,4.4
2015-11-26T01:34:25.157Z,4.4
2015-11-26T01:35:25.113Z,4.5
2015-11-26T01:36:25.054Z,4.4
2015-11-26T01:37:24.993Z,4.4
2015-11-26T01:38:24.934Z,4.4
2015-11-26T01:39:24.890Z,4.4
2015-11-26T01:40:24.829Z,4.4
2015-11-26T01:41:24.770Z,4.4
2015-11-26T01:42:24.710Z,4.4
2015-11-26T01:43:24.650Z,4.4
2015-11-26T01:44:24.607Z,4.4
2015-11-26T01:45:24.546Z,4.4
2015-11-26T01:46:24.487Z,4.3
2015-11-26T01:47:24.427Z,4.3
2015-11-26T01:48:24.383Z,4.3
2015-11-26T01:49:24.354Z,4.4
2015-11-26T01:50:24.279Z,4.4
2015-11-26T01:51:24.204Z,4.3
2015-11-26T01:52:24.144Z,4.3
2015-11-26T01:53:24.100Z,4.3
2015-11-26T01:54:24.039Z,4.3
2015-11-26T01:55:23.980Z,4.3
2015-11-26T01:56:23.917Z,4.3
2015-11-26T01:57:23.873Z,4.3
2015-11-26T01:58:23.814Z,4.3
2015-11-26T01:59:23.753Z,4.3
2015-11-26T02:00:23.694Z,4.3
2015-11-26T02:01:23.649Z,4.3
2015-11-26T02:02:23.589Z,4.2
2015-11-26T02:03:23.530Z,4.3
2015-11-26T02:04:23.470Z,4.2
2015-11-26T02:05:23.411Z,4.2
2015-11-26T02:06:23.366Z,4.2
2015-11-26T02:07:23.307Z,4.2
2015-11-26T02:08:23.247Z,4.1
2015-11-26T02:09:23.188Z,4.1
2015-11-26T02:10:23.174Z,4.1
2015-11-26T02:11:23.083Z,4.1
2015-11-26T02:12:23.024Z,4
2015-11-26T02:13:22.964Z,4
2015-11-26T02:14:22.904Z,4
2015-11-26T02:15:22.860Z,4.1
2015-11-26T02:16:22.785Z,4
2015-11-26T02:17:22.740Z,4
2015-11-26T02:18:22.680Z,4
2015-11-26T02:19:22.636Z,4
2015-11-26T02:20:22.561Z,4.1
2015-11-26T02:21:22.502Z,4
2015-11-26T02:22:22.457Z,4
2015-11-26T02:23:22.397Z,4
2015-11-26T02:24:22.337Z,4.1
2015-11-26T02:25:22.277Z,4
2015-11-26T02:26:22.218Z,4.1
2015-11-26T02:27:22.158Z,4.1
2015-11-26T02:28:22.115Z,4.1
2015-11-26T02:29:22.054Z,4.1
2015-11-26T02:30:21.995Z,4.1
2015-11-26T02:31:21.935Z,4.1
2015-11-26T02:32:21.890Z,4.2
2015-11-26T02:33:21.831Z,4.1
2015-11-26T02:34:21.771Z,4.1
2015-11-26T02:35:21.711Z,4.2
2015-11-26T02:36:21.651Z,4.2
2015-11-26T02:37:21.639Z,4.1
2015-11-26T02:38:21.548Z,4.2
2015-11-26T02:39:21.487Z,4.1
2015-11-26T02:40:21.443Z,4.1
2015-11-26T02:41:21.384Z,4.1
2015-11-26T02:42:21.324Z,4.1
2015-11-26T02:43:21.311Z,4.1
2015-11-26T02:44:21.220Z,4.1
2015-11-26T02:45:21.161Z,4.1
2015-11-26T02:46:21.100Z,4.1
2015-11-26T02:47:21.041Z,4.1
2015-11-26T02:48:20.997Z,4
2015-11-26T02:49:20.922Z,4
2015-11-26T02:50:20.877Z,4
2015-11-26T02:51:20.817Z,4
2015-11-26T02:52:20.758Z,4
2015-11-26T02:53:20.698Z,3.9
2015-11-26T02:54:20.638Z,3.9
2015-11-26T02:55:20.578Z,3.9
2015-11-26T02:56:20.519Z,3.9
2015-11-26T02:57:20.475Z,4
2015-11-26T02:58:20.414Z,4
2015-11-26T02:59:20.355Z,4
2015-11-26T03:00:20.292Z,4
2015-11-26T03:01:20.233Z,4
2015-11-26T03:02:20.173Z,4.1
2015-11-26T03:03:20.113Z,4
2015-11-26T03:04:20.069Z,4.1
2015-11-26T03:05:20.008Z,4.1
2015-11-26T03:06:19.949Z,4.1
2015-11-26T03:07:19.889Z,4.1
2015-11-26T03:08:19.830Z,4.2
2015-11-26T03:09:19.769Z,4.2
2015-11-26T03:10:19.726Z,4.2
2015-11-26T03:11:19.665Z,4.2
2015-11-26T03:12:19.637Z,4.3
2015-11-26T03:13:19.546Z,4.2
2015-11-26T03:14:19.487Z,4.3
2015-11-26T03:15:19.442Z,4.3
2015-11-26T03:16:19.382Z,4.3
2015-11-26T03:17:19.323Z,4.3
2015-11-26T03:18:19.263Z,4.3
2015-11-26T03:19:19.204Z,4.4
2015-11-26T03:20:19.159Z,4.4
2015-11-26T03:21:19.099Z,4.4
2015-11-26T03:22:19.039Z,4.4
2015-11-26T03:23:18.979Z,4.3
2015-11-26T03:24:18.935Z,4.4
2015-11-26T03:25:18.876Z,4.4
2015-11-26T03:26:18.816Z,4.4
2015-11-26T03:27:18.756Z,4.4
2015-11-26T03:28:18.696Z,4.5
2015-11-26T03:29:18.637Z,4.4
2015-11-26T03:30:18.592Z,4.4
2015-11-26T03:31:18.533Z,4.4
2015-11-26T03:32:18.473Z,4.4
2015-11-26T03:33:18.414Z,4.5
2015-11-26T03:34:18.370Z,4.4
2015-11-26T03:35:18.309Z,4.5
2015-11-26T03:36:18.250Z,4.5
2015-11-26T03:37:18.190Z,4.5
2015-11-26T03:38:18.130Z,4.5
2015-11-26T03:39:18.086Z,4.5
2015-11-26T03:40:18.026Z,4.6
2015-11-26T03:41:17.967Z,4.5
2015-11-26T03:42:17.906Z,4.5
2015-11-26T03:43:17.862Z,4.5
2015-11-26T03:44:17.802Z,4.5
2015-11-26T03:45:17.743Z,4.5
2015-11-26T03:46:17.683Z,4.5
2015-11-26T03:47:17.623Z,4.5
2015-11-26T03:48:17.580Z,4.5
2015-11-26T03:49:17.520Z,4.5
2015-11-26T03:50:17.460Z,4.5
2015-11-26T03:51:17.400Z,4.5
2015-11-26T03:52:17.341Z,4.5
2015-11-26T03:53:17.296Z,4.5
2015-11-26T03:54:17.236Z,4.5
2015-11-26T03:55:17.192Z,4.4
2015-11-26T03:56:17.133Z,4.4
2015-11-26T03:57:17.073Z,4.4
2015-11-26T03:58:17.013Z,4.4
2015-11-26T03:59:16.953Z,4.4
2015-11-26T04:00:16.893Z,4.4
2015-11-26T04:01:16.850Z,4.4
2015-11-26T04:02:16.789Z,4.4
2015-11-26T04:03:16.730Z,4.3
2015-11-26T04:04:16.669Z,4.3
2015-11-26T04:05:16.626Z,4.4
2015-11-26T04:06:16.566Z,4.4
2015-11-26T04:07:16.507Z,4.4
2015-11-26T04:08:16.446Z,4.4
2015-11-26T04:09:16.402Z,4.4
2015-11-26T04:10:16.343Z,4.4
2015-11-26T04:11:16.283Z,4.4
2015-11-26T04:12:16.221Z,4.5
2015-11-26T04:13:16.176Z,4.5
2015-11-26T04:14:16.101Z,4.5
2015-11-26T04:15:16.057Z,4.5
2015-11-26T04:16:15.996Z,4.4
2015-11-26T04:17:15.937Z,4.4
2015-11-26T04:18:15.892Z,4.4
2015-11-26T04:19:15.833Z,4.4
2015-11-26T04:20:15.773Z,4.4
2015-11-26T04:21:15.728Z,4.4
2015-11-26T04:22:15.669Z,4.5
2015-11-26T04:23:15.609Z,4.4
2015-11-26T04:24:15.550Z,4.4
2015-11-26T04:25:15.490Z,4.4
2015-11-26T04:26:15.431Z,4.4
2015-11-26T04:27:15.386Z,4.4
2015-11-26T04:28:15.326Z,4.4
2015-11-26T04:29:15.266Z,4.5
2015-11-26T04:30:15.207Z,4.5
2015-11-26T04:31:15.162Z,4.5
2015-11-26T04:32:15.103Z,4.5
2015-11-26T04:33:15.043Z,4.5
2015-11-26T04:34:14.984Z,4.5
2015-11-26T04:35:14.939Z,4.5
2015-11-26T04:36:14.879Z,4.5
2015-11-26T04:37:14.819Z,4.5
2015-11-26T04:38:14.775Z,4.5
2015-11-26T04:39:14.700Z,4.5
2015-11-26T04:40:14.655Z,4.5
2015-11-26T04:41:14.597Z,4.5
2015-11-26T04:42:14.536Z,4.5
2015-11-26T04:43:14.477Z,4.6
2015-11-26T04:44:14.432Z,4.6
2015-11-26T04:45:14.372Z,4.6
2015-11-26T04:46:14.313Z,4.5
2015-11-26T04:47:14.269Z,4.5
2015-11-26T04:48:14.208Z,4.5
2015-11-26T04:49:14.149Z,4.5
2015-11-26T04:50:14.089Z,4.6
2015-11-26T04:51:14.029Z,4.6
2015-11-26T04:52:14.001Z,4.6
2015-11-26T04:53:13.925Z,4.6
2015-11-26T04:54:13.866Z,4.6
2015-11-26T04:55:13.805Z,4.6
2015-11-26T04:56:13.762Z,4.7
2015-11-26T04:57:13.733Z,4.6
2015-11-26T04:58:13.643Z,4.6
2015-11-26T04:59:13.583Z,4.6
2015-11-26T05:00:13.538Z,4.6
2015-11-26T05:01:13.478Z,4.6
2015-11-26T05:02:13.419Z,4.6
2015-11-26T05:03:13.374Z,4.6
2015-11-26T05:04:13.315Z,4.6
2015-11-26T05:05:13.255Z,4.6
2015-11-26T05:06:13.196Z,4.6
2015-11-26T05:07:13.135Z,4.6
2015-11-26T05:08:13.090Z,4.6
2015-11-26T05:09:13.031Z,4.6
2015-11-26T05:10:12.972Z,4.6
2015-11-26T05:11:12.912Z,4.6
2015-11-26T05:12:12.868Z,4.6
2015-11-26T05:13:12.809Z,4.6
2015-11-26T05:14:12.748Z,4.6
2015-11-26T05:15:12.689Z,4.7
2015-11-26T05:16:12.644Z,4.6
2015-11-26T05:17:12.585Z,4.6
2015-11-26T05:18:12.523Z,4.7
2015-11-26T05:19:12.463Z,4.7
2015-11-26T05:20:12.418Z,4.6
2015-11-26T05:21:12.374Z,4.7
2015-11-26T05:22:12.298Z,4.7
2015-11-26T05:23:12.333Z,4.6
2015-11-26T05:24:12.210Z,4.6
2015-11-26T05:25:12.135Z,4.6
2015-11-26T05:26:12.075Z,4.6
2015-11-26T05:27:12.062Z,4.6
2015-11-26T05:28:11.972Z,4.6
2015-11-26T05:29:11.912Z,4.6
2015-11-26T05:30:11.852Z,4.6
2015-11-26T05:31:11.792Z,4.6
2015-11-26T05:32:11.732Z,4.6
2015-11-26T05:33:11.689Z,4.6
2015-11-26T05:34:11.629Z,4.6
2015-11-26T05:35:11.569Z,4.6
2015-11-26T05:36:11.525Z,4.6
2015-11-26T05:37:11.465Z,4.6
2015-11-26T05:38:11.405Z,4.6
2015-11-26T05:39:11.345Z,4.6
2015-11-26T05:40:11.301Z,4.6
2015-11-26T05:41:11.241Z,4.6
2015-11-26T05:42:11.181Z,4.6
2015-11-26T05:43:11.121Z,4.6
2015-11-26T05:44:11.077Z,4.6
2015-11-26T05:45:11.019Z,4.6
2015-11-26T05:46:10.958Z,4.6
2015-11-26T05:47:10.914Z,4.6
2015-11-26T05:48:10.855Z,4.5
2015-11-26T05:49:10.795Z,4.5
2015-11-26T05:50:10.735Z,4.6
2015-11-26T05:51:10.690Z,4.6
2015-11-26T05:52:10.631Z,4.5
2015-11-26T05:53:10.571Z,4.5
2015-11-26T05:54:10.511Z,4.4
2015-11-26T05:55:10.452Z,4.4
2015-11-26T05:56:10.407Z,4.4
2015-11-26T05:57:10.347Z,4.4
2015-11-26T05:58:10.304Z,4.5
2015-11-26T05:59:10.228Z,4.5
2015-11-26T06:00:10.168Z,4.5
2015-11-26T06:01:10.124Z,4.5
2015-11-26T06:02:10.065Z,4.5
2015-11-26T06:03:10.004Z,4.5
2015-11-26T06:04:09.945Z,4.5
2015-11-26T06:05:09.885Z,4.5
2015-11-26T06:06:09.841Z,4.5
2015-11-26T06:07:09.782Z,4.5
2015-11-26T06:08:09.721Z,4.5
2015-11-26T06:09:09.662Z,4.5
2015-11-26T06:10:09.602Z,4.5
2015-11-26T06:11:09.558Z,4.5
2015-11-26T06:12:09.498Z,4.5
2015-11-26T06:13:09.435Z,4.5
2015-11-26T06:14:09.376Z,4.5
2015-11-26T06:15:09.331Z,4.5
2015-11-26T06:16:09.288Z,4.5
2015-11-26T06:17:09.212Z,4.5
2015-11-26T06:18:09.167Z,4.6
2015-11-26T06:19:09.109Z,4.6
2015-11-26T06:20:09.049Z,4.6
2015-11-26T06:21:08.989Z,4.6
2015-11-26T06:22:08.938Z,4.5
2015-11-26T06:23:08.866Z,4.5
2015-11-26T06:24:08.795Z,4.5
2015-11-26T06:25:08.724Z,4.6
2015-11-26T06:26:08.653Z,4.5
2015-11-26T06:27:08.601Z,4.5
2015-11-26T06:28:08.536Z,4.5
2015-11-26T06:29:08.488Z,4.5
2015-11-26T06:30:08.409Z,4.6
2015-11-26T06:31:08.360Z,4.6
2015-11-26T06:32:08.298Z,4.5
2015-11-26T06:33:08.237Z,4.5
2015-11-26T06:34:08.191Z,4.5
2015-11-26T06:35:08.130Z,4.5
2015-11-26T06:36:08.069Z,4.5
2015-11-26T06:37:08.008Z,4.5
2015-11-26T06:38:07.963Z,4.5
2015-11-26T06:39:07.903Z,4.5
2015-11-26T06:40:07.843Z,4.5
2015-11-26T06:41:07.784Z,4.5
2015-11-26T06:42:07.738Z,4.4
2015-11-26T06:43:07.663Z,4.4
2015-11-26T06:44:07.618Z,4.4
2015-11-26T06:45:07.558Z,4.4
2015-11-26T06:46:07.498Z,4.4
2015-11-26T06:47:07.454Z,4.5
2015-11-26T06:48:07.393Z,4.5
2015-11-26T06:49:07.334Z,4.5
2015-11-26T06:50:07.274Z,4.5
2015-11-26T06:51:07.231Z,4.5
2015-11-26T06:52:07.171Z,4.5
2015-11-26T06:53:07.111Z,4.5
2015-11-26T06:54:07.067Z,4.5
2015-11-26T06:55:06.991Z,4.5
2015-11-26T06:56:06.931Z,4.6
2015-11-26T06:57:06.886Z,4.5
2015-11-26T06:58:06.827Z,4.6
2015-11-26T06:59:06.767Z,4.6
2015-11-26T07:00:06.723Z,4.6
2015-11-26T07:01:06.664Z,4.6
2015-11-26T07:02:06.604Z,4.6
2015-11-26T07:03:06.544Z,4.6
2015-11-26T07:04:06.500Z,4.6
2015-11-26T07:05:06.440Z,4.6
2015-11-26T07:06:06.380Z,4.6
2015-11-26T07:07:06.336Z,4.6
2015-11-26T07:08:06.261Z,4.6
2015-11-26T07:09:06.216Z,4.6
2015-11-26T07:10:06.157Z,4.6
2015-11-26T07:11:06.097Z,4.6
2015-11-26T07:12:06.037Z,4.7
2015-11-26T07:13:05.994Z,4.7
2015-11-26T07:14:05.933Z,4.6
2015-11-26T07:15:05.874Z,4.6
2015-11-26T07:16:05.814Z,4.6
2015-11-26T07:17:05.770Z,4.6
2015-11-26T07:18:05.695Z,4.7
2015-11-26T07:19:05.650Z,4.7
2015-11-26T07:20:05.588Z,4.7
2015-11-26T07:21:05.527Z,4.7
2015-11-26T07:22:05.483Z,4.8
2015-11-26T07:23:05.424Z,4.7
2015-11-26T07:24:05.364Z,4.7
2015-11-26T07:25:05.304Z,4.7
2015-11-26T07:26:05.244Z,4.7
2015-11-26T07:27:05.200Z,4.7
2015-11-26T07:28:05.156Z,4.7
2015-11-26T07:29:05.082Z,4.7
2015-11-26T07:30:05.021Z,4.7
2015-11-26T07:31:04.977Z,4.7
2015-11-26T07:32:04.902Z,4.7
2015-11-26T07:33:04.858Z,4.7
2015-11-26T07:34:04.798Z,4.7
2015-11-26T07:35:04.738Z,4.7
2015-11-26T07:36:04.693Z,4.7
2015-11-26T07:37:04.634Z,4.7
2015-11-26T07:38:04.574Z,4.7
2015-11-26T07:39:04.515Z,4.7
2015-11-26T07:40:04.455Z,4.7
2015-11-26T07:41:04.396Z,4.7
2015-11-26T07:42:04.335Z,4.7
2015-11-26T07:43:04.290Z,4.7
2015-11-26T07:44:04.231Z,4.7
2015-11-26T07:45:04.172Z,4.7
2015-11-26T07:46:04.112Z,4.7
2015-11-26T07:47:04.084Z,4.7
2015-11-26T07:48:04.023Z,4.7
2015-11-26T07:49:03.948Z,4.7
2015-11-26T07:50:03.888Z,4.6
2015-11-26T07:51:03.829Z,4.7
2015-11-26T07:52:03.769Z,4.7
2015-11-26T07:53:03.724Z,4.7
2015-11-26T07:54:03.664Z,4.7
2015-11-26T07:55:03.605Z,4.7
2015-11-26T07:56:03.545Z,4.7
2015-11-26T07:57:03.486Z,4.7
2015-11-26T07:58:03.442Z,4.7
2015-11-26T07:59:03.381Z,4.7
2015-11-26T08:00:03.322Z,4.7
2015-11-26T08:01:03.262Z,4.7
2015-11-26T08:02:03.202Z,4.7
2015-11-26T08:03:03.142Z,4.6
2015-11-26T08:04:03.098Z,4.7
2015-11-26T08:05:03.039Z,4.7
2015-11-26T08:06:02.978Z,4.7
2015-11-26T08:07:02.919Z,4.7
2015-11-26T08:08:02.859Z,4.7
2015-11-26T08:09:02.799Z,4.7
2015-11-26T08:10:02.755Z,4.7
2015-11-26T08:11:02.697Z,4.7
2015-11-26T08:12:02.636Z,4.7
2015-11-26T08:13:02.577Z,4.7
2015-11-26T08:14:02.516Z,4.7
2015-11-26T08:15:02.457Z,4.7
2015-11-26T08:16:02.460Z,4.8
2015-11-26T08:17:02.369Z,4.7
2015-11-26T08:18:02.293Z,4.7
2015-11-26T08:19:02.233Z,4.7
2015-11-26T08:20:02.174Z,4.7
2015-11-26T08:21:02.130Z,4.7
2015-11-26T08:22:02.069Z,4.7
2015-11-26T08:23:02.010Z,4.7
2015-11-26T08:24:01.950Z,4.8
2015-11-26T08:25:01.890Z,4.8
2015-11-26T08:26:01.846Z,4.8
2015-11-26T08:27:01.785Z,4.8
2015-11-26T08:28:01.726Z,4.9
2015-11-26T08:29:01.666Z,4.9
2015-11-26T08:30:01.604Z,5
2015-11-26T08:31:01.560Z,5.3
2015-11-26T08:32:01.500Z,5.7
2015-11-26T08:33:01.440Z,5.7
2015-11-26T08:34:01.380Z,5.5
2015-11-26T08:35:01.336Z,5.4
2015-11-26T08:36:01.276Z,5.3
2015-11-26T08:37:01.217Z,5.3
2015-11-26T08:38:01.157Z,5.3
2015-11-26T08:39:01.113Z,5.3
2015-11-26T08:40:01.053Z,5.3
2015-11-26T08:41:00.993Z,5.3
2015-11-26T08:42:00.933Z,5.7
2015-11-26T08:43:00.889Z,6.4
2015-11-26T08:44:00.829Z,6.7
2015-11-26T08:45:00.769Z,6.5
2015-11-26T08:46:00.709Z,6.3
2015-11-26T08:47:00.666Z,6.1
2015-11-26T08:48:00.606Z,6
2015-11-26T08:49:00.546Z,5.9
2015-11-26T08:50:00.486Z,5.8
2015-11-26T08:51:00.458Z,5.7
2015-11-26T08:52:00.382Z,5.6
2015-11-26T08:53:00.322Z,5.6
2015-11-26T08:54:00.263Z,5.6
2015-11-26T08:55:00.203Z,5.5
2015-11-26T08:56:00.158Z,5.6
2015-11-26T08:57:00.099Z,5.6
2015-11-26T08:58:00.055Z,5.7
2015-11-26T08:58:59.980Z,5.7
2015-11-26T08:59:59.935Z,5.6
2015-11-26T09:00:59.891Z,5.7
2015-11-26T09:01:59.816Z,5.7
2015-11-26T09:02:59.755Z,5.7
2015-11-26T09:03:59.696Z,5.8
2015-11-26T09:04:59.652Z,6.2
2015-11-26T09:05:59.593Z,6.3
2015-11-26T09:06:59.533Z,6.3
2015-11-26T09:07:59.473Z,6.6
2015-11-26T09:08:59.428Z,7.1
2015-11-26T09:09:59.369Z,7.6
2015-11-26T09:10:59.309Z,7.7
2015-11-26T09:11:59.265Z,7.6
2015-11-26T09:12:59.205Z,7.5
2015-11-26T09:13:59.145Z,7
2015-11-26T09:14:59.101Z,6.9
2015-11-26T09:15:59.041Z,7
2015-11-26T09:16:58.982Z,7.3
2015-11-26T09:17:58.921Z,7.4
2015-11-26T09:18:58.862Z,7.8
2015-11-26T09:19:58.818Z,8.1
2015-11-26T09:20:58.759Z,8
2015-11-26T09:21:58.698Z,8.1
2015-11-26T09:22:58.654Z,8
2015-11-26T09:23:58.594Z,7.9
2015-11-26T09:24:58.534Z,8
2015-11-26T09:25:58.475Z,8.1
2015-11-26T09:26:58.431Z,8.2
2015-11-26T09:27:58.371Z,7.8
2015-11-26T09:28:58.312Z,7.7
2015-11-26T09:29:58.251Z,7.4
2015-11-26T09:30:58.207Z,7.3
2015-11-26T09:31:58.147Z,7.2
2015-11-26T09:32:58.103Z,7.6
2015-11-26T09:33:58.044Z,8.2
2015-11-26T09:34:57.983Z,8.6
2015-11-26T09:35:57.940Z,8.8
2015-11-26T09:36:57.880Z,9.2
2015-11-26T09:37:57.820Z,9.5
2015-11-26T09:38:57.761Z,9.5
2015-11-26T09:39:57.717Z,9.7
2015-11-26T09:40:57.657Z,9.9
2015-11-26T09:41:57.612Z,10
2015-11-26T09:42:57.553Z,10.1
2015-11-26T09:43:57.490Z,9.9
2015-11-26T09:44:57.446Z,10.3
2015-11-26T09:45:57.386Z,10.3
2015-11-26T09:46:57.342Z,10.5
2015-11-26T09:47:57.297Z,10.5
2015-11-26T09:48:57.238Z,10.6
2015-11-26T09:49:57.178Z,10.6
2015-11-26T09:50:57.133Z,10.8
2015-11-26T09:51:57.090Z,10.6
2015-11-26T09:52:57.014Z,10.4
2015-11-26T09:53:56.971Z,10.3
2015-11-26T09:54:56.911Z,10
2015-11-26T09:55:56.866Z,9.6
2015-11-26T09:56:56.807Z,9
2015-11-26T09:57:56.746Z,8.6
2015-11-26T09:58:56.703Z,8.7
2015-11-26T09:59:56.674Z,8.7
2015-11-26T10:00:56.630Z,8.7
2015-11-26T10:01:56.539Z,8.4
2015-11-26T10:02:56.479Z,8.3
2015-11-26T10:03:56.435Z,8
2015-11-26T10:04:56.376Z,7.9
2015-11-26T10:05:56.316Z,7.8
2015-11-26T10:06:56.256Z,7.8
2015-11-26T10:07:56.212Z,7.6
2015-11-26T10:08:56.151Z,7.4
2015-11-26T10:09:56.093Z,7.6
2015-11-26T10:10:56.032Z,7.8
2015-11-26T10:11:55.988Z,9
2015-11-26T10:12:55.928Z,10.4
2015-11-26T10:13:55.869Z,11.4
2015-11-26T10:14:55.824Z,11.4
2015-11-26T10:15:55.765Z,12.1
2015-11-26T10:16:55.720Z,12.5
2015-11-26T10:17:55.676Z,12.3
2015-11-26T10:18:55.617Z,12.1
2015-11-26T10:19:55.556Z,11.7
2015-11-26T10:20:55.512Z,12.1
2015-11-26T10:21:55.453Z,13
2015-11-26T10:22:55.393Z,13.5
2015-11-26T10:23:55.349Z,13.9
2015-11-26T10:24:55.289Z,14.1
2015-11-26T10:25:55.245Z,14.1
2015-11-26T10:26:55.186Z,14.3
2015-11-26T10:27:55.141Z,14.6
2015-11-26T10:28:55.081Z,14.4
2015-11-26T10:29:55.021Z,13.6
2015-11-26T10:30:54.978Z,13.7
2015-11-26T10:31:54.917Z,13.1
2015-11-26T10:32:54.873Z,12.5
2015-11-26T10:33:54.814Z,9.9
2015-11-26T10:34:54.770Z,9.2
2015-11-26T10:35:54.711Z,8.3
2015-11-26T10:36:54.650Z,8.4
2015-11-26T10:37:54.591Z,8.3
2015-11-26T10:38:54.546Z,8.3
2015-11-26T10:39:54.486Z,8.3
2015-11-26T10:40:54.427Z,8.3
2015-11-26T10:41:54.366Z,8.4
2015-11-26T10:42:54.323Z,8.4
2015-11-26T10:43:54.294Z,8.4
2015-11-26T10:44:54.219Z,8.2
2015-11-26T10:45:54.158Z,8.4
2015-11-26T10:46:54.099Z,8.9
2015-11-26T10:47:54.039Z,9.7
2015-11-26T10:48:53.996Z,10.9
2015-11-26T10:49:53.935Z,11.5
2015-11-26T10:50:53.891Z,11.9
2015-11-26T10:51:53.832Z,11
2015-11-26T10:52:53.787Z,10.7
2015-11-26T10:53:53.724Z,10.5
2015-11-26T10:54:53.666Z,10.8
2015-11-26T10:55:53.621Z,11.1
2015-11-26T10:56:53.546Z,11.1
2015-11-26T10:57:53.501Z,11.3
2015-11-26T10:58:53.441Z,11.4
2015-11-26T10:59:53.382Z,10.5
2015-11-26T11:00:53.337Z,9.8
2015-11-26T11:01:53.279Z,9
2015-11-26T11:02:53.234Z,9.1
2015-11-26T11:03:53.174Z,8.3
2015-11-26T11:04:53.114Z,8.1
2015-11-26T11:05:53.055Z,8
2015-11-26T11:06:52.996Z,7.8
2015-11-26T11:07:52.951Z,7.7
2015-11-26T11:08:52.891Z,7.3
2015-11-26T11:09:52.831Z,7.5
2015-11-26T11:10:52.787Z,7.8
2015-11-26T11:11:52.727Z,7.9
2015-11-26T11:12:52.668Z,8.2
2015-11-26T11:13:52.623Z,8.2
2015-11-26T11:14:52.564Z,7.9
2015-11-26T11:15:52.504Z,8.1
2015-11-26T11:16:52.460Z,8.4
2015-11-26T11:17:52.385Z,8.5
2015-11-26T11:18:52.340Z,8.4
2015-11-26T11:19:52.280Z,8.5
2015-11-26T11:20:52.221Z,8.7
2015-11-26T11:21:52.176Z,8.5
2015-11-26T11:22:52.117Z,8.5
2015-11-26T11:23:52.073Z,8.5
2015-11-26T11:24:52.012Z,8.4
2015-11-26T11:25:51.954Z,8.2
2015-11-26T11:26:51.893Z,8
2015-11-26T11:27:51.850Z,8.1
2015-11-26T11:28:51.789Z,8.1
2015-11-26T11:29:51.730Z,8.2
2015-11-26T11:30:51.670Z,8.2
2015-11-26T11:31:51.626Z,8.4
2015-11-26T11:32:51.567Z,8.3
2015-11-26T11:33:51.553Z,7.8
2015-11-26T11:34:51.462Z,7.8
2015-11-26T11:35:51.403Z,7.9
2015-11-26T11:36:51.343Z,8.1
2015-11-26T11:37:51.283Z,7.8
2015-11-26T11:38:51.239Z,7.9
2015-11-26T11:39:51.179Z,8.3
2015-11-26T11:40:51.119Z,8.6
2015-11-26T11:41:51.075Z,8.8
2015-11-26T11:42:51.016Z,9
2015-11-26T11:43:50.956Z,8.4
2015-11-26T11:44:50.894Z,8.5
2015-11-26T11:45:50.849Z,8.7
2015-11-26T11:46:50.789Z,9.2
2015-11-26T11:47:50.729Z,9.1
2015-11-26T11:48:50.685Z,9.2
2015-11-26T11:49:50.625Z,9
2015-11-26T11:50:50.581Z,9
2015-11-26T11:51:50.522Z,9.2
2015-11-26T11:52:50.478Z,9.3
2015-11-26T11:53:50.402Z,9.6
2015-11-26T11:54:50.358Z,9.7
2015-11-26T11:55:50.314Z,9.6
2015-11-26T11:56:50.254Z,9.8
2015-11-26T11:57:50.195Z,10.1
2015-11-26T11:58:50.135Z,9.2
2015-11-26T11:59:50.091Z,9.2
2015-11-26T12:00:50.031Z,9.6
2015-11-26T12:01:49.971Z,9.8
2015-11-26T12:02:49.928Z,9.8
2015-11-26T12:03:49.867Z,9.9
2015-11-26T12:04:49.808Z,9.4
2015-11-26T12:05:49.764Z,9.5
2015-11-26T12:06:49.704Z,8.5
2015-11-26T12:07:49.644Z,9.2
2015-11-26T12:08:49.599Z,9.7
2015-11-26T12:09:49.541Z,9.7
2015-11-26T12:10:49.480Z,9.8
2015-11-26T12:11:49.435Z,10.2
2015-11-26T12:12:49.376Z,10.5
2015-11-26T12:13:49.316Z,10.8
2015-11-26T12:14:49.272Z,10.9
2015-11-26T12:15:49.213Z,10.8
2015-11-26T12:16:49.185Z,10.2
2015-11-26T12:17:49.109Z,9.8
2015-11-26T12:18:49.049Z,10.2
2015-11-26T12:19:49.005Z,10.3
2015-11-26T12:20:48.946Z,10.3
2015-11-26T12:21:48.901Z,10
2015-11-26T12:22:48.841Z,10
2015-11-26T12:23:48.782Z,10.2
2015-11-26T12:24:48.737Z,10.2
2015-11-26T12:25:48.678Z,10.3
2015-11-26T12:26:48.618Z,10.5
2015-11-26T12:27:48.574Z,10.4
2015-11-26T12:28:48.529Z,10.5
2015-11-26T12:29:48.470Z,10.5
2015-11-26T12:30:48.410Z,10.4
2015-11-26T12:31:48.363Z,10.1
2015-11-26T12:32:48.304Z,10.2
2015-11-26T12:33:48.244Z,10.2
2015-11-26T12:34:48.184Z,10.1
2015-11-26T12:35:48.140Z,10
2015-11-26T12:36:48.080Z,9.9
2015-11-26T12:37:48.036Z,9.8
2015-11-26T12:38:47.976Z,9.8
2015-11-26T12:39:47.917Z,9.7
2015-11-26T12:40:47.873Z,9.8
2015-11-26T12:41:47.812Z,10
2015-11-26T12:42:47.752Z,10
2015-11-26T12:43:47.692Z,9.8
2015-11-26T12:44:47.648Z,9.8
2015-11-26T12:45:47.588Z,10.1
2015-11-26T12:46:47.529Z,10.1
2015-11-26T12:47:47.484Z,10.2
2015-11-26T12:48:47.425Z,9.9
2015-11-26T12:49:47.364Z,10
2015-11-26T12:50:47.322Z,10.1
2015-11-26T12:51:47.261Z,10.2
2015-11-26T12:52:47.217Z,10.4
2015-11-26T12:53:47.143Z,10.6
2015-11-26T12:54:47.098Z,10.7
2015-11-26T12:55:47.039Z,10.4
2015-11-26T12:56:46.994Z,10.3
2015-11-26T12:57:46.934Z,10.4
2015-11-26T12:58:46.874Z,10.4
2015-11-26T12:59:46.831Z,10.5
2015-11-26T13:00:46.770Z,10.6
2015-11-26T13:01:46.727Z,10.6
2015-11-26T13:02:46.666Z,10.6
2015-11-26T13:03:46.607Z,10.7
2015-11-26T13:04:46.563Z,10.7
2015-11-26T13:05:46.502Z,10.7
2015-11-26T13:06:46.443Z,10.7
2015-11-26T13:07:46.399Z,10.8
2015-11-26T13:08:46.339Z,10.8
2015-11-26T13:09:46.294Z,10.8
2015-11-26T13:10:46.235Z,11
2015-11-26T13:11:46.191Z,11
2015-11-26T13:12:46.131Z,10.9
2015-11-26T13:13:46.071Z,10.9
2015-11-26T13:14:46.028Z,11.1
2015-11-26T13:15:45.999Z,10.8
2015-11-26T13:16:45.924Z,10.5
2015-11-26T13:17:45.864Z,10.2
2015-11-26T13:18:45.804Z,10.1
2015-11-26T13:19:45.760Z,10.1
2015-11-26T13:20:45.700Z,10.4
2015-11-26T13:21:45.640Z,10.4
2015-11-26T13:22:45.581Z,10.3
2015-11-26T13:23:45.537Z,10.2
2015-11-26T13:24:45.477Z,10
2015-11-26T13:25:45.432Z,10
2015-11-26T13:26:45.373Z,9.9
2015-11-26T13:27:45.329Z,9.7
2015-11-26T13:28:45.266Z,9.6
2015-11-26T13:29:45.222Z,9.6
2015-11-26T13:30:45.147Z,9.5
2015-11-26T13:31:45.102Z,9.4
2015-11-26T13:32:45.043Z,9.2
2015-11-26T13:33:44.982Z,9
2015-11-26T13:34:44.940Z,9.1
2015-11-26T13:35:44.880Z,9.2
2015-11-26T13:36:44.821Z,9.2
2015-11-26T13:37:44.760Z,9.1
2015-11-26T13:38:44.716Z,9
2015-11-26T13:39:44.657Z,9
2015-11-26T13:40:44.613Z,8.9
2015-11-26T13:41:44.552Z,8.6
2015-11-26T13:42:44.493Z,8.5
2015-11-26T13:43:44.433Z,8.5
2015-11-26T13:44:44.388Z,8.5